Vienna, Texas
Current Conditions -  °F | °C
As of 10:35 PM on Friday 19 Dec 2014 (Local Time) from K66R Reporting Station
Overcast Overcast  
Wind Chill: 51°   Ceiling: 800
Heat Index: 51°   Visibility: 10mi
Dew Point: 49°   Wind: 12mph
Humidity: 93%   Direction: 340°NNW
Pressure: 30.15"   Gusts: 17mph
Location:  29.3984°N, 96.8256°W
Report Text: K66R 200435Z AUTO 34010G15KT 10SM OVC008 11/10 A3015 RMK AO2 T01080097
Loading
Personal Weather Stations






























Interactive Weather Map New forecast layout! Learn more

10-Day Weather Forecast

Advertisements
Track Severe Weather on mobile